Inzhener Nazarov — UAGO — position and weather

sailwx.info

Track history (hours):
 
Tides and Currents Weather Stations Pressure Air Temp Water Temp Dewpoint Dewpoint Depression Visibility Wind Speed Wind Dir Waves Ship Positions

Inzhener Nazarov

Last reported at 2017-Dec-11 16:39 UTC. Time now 2017-Dec-12 23:43 UTC.
Position N 45°13' E 036°31'.

Length 132 m; draft 3.5 m.

Type: Tanker. MMSI: 273310100.

Date/timePositionNaut miles runAvg speedWind from/ knotsBaromVisibWave heightAir tempDewpointWater temp
2017-Dec-11 16:39N 45°13' E 036°31'0 0.0
2017-Dec-11 16:30N 45°13' E 036°31'0 0.0
2017-Dec-11 15:45N 45°13' E 036°31'0 0.0
2017-Dec-11 15:30N 45°13' E 036°31'0 0.0
2017-Dec-11 14:57N 45°13' E 036°31'0 0.0
2017-Dec-11 14:16N 45°13' E 036°31'0 0.0
2017-Dec-11 14:00N 45°13' E 036°31'0 0.0
2017-Dec-11 13:30N 45°13' E 036°31'0 0.0
2017-Dec-11 12:58N 45°13' E 036°31'0 0.0
2017-Dec-11 12:25N 45°13' E 036°31'0 0.0
2017-Dec-11 11:51N 45°13' E 036°31'0 0.0
2017-Dec-11 11:28N 45°13' E 036°31'0 0.0
2017-Dec-11 10:57N 45°13' E 036°31'0 0.0
2017-Dec-11 10:29N 45°13' E 036°31'0 0.0
2017-Dec-11 09:51N 45°13' E 036°31'0 0.0
2017-Dec-11 09:28N 45°13' E 036°31'0 0.0
2017-Dec-11 08:58N 45°13' E 036°31'0 0.0
2017-Dec-11 08:23N 45°13' E 036°31'0 0.0
2017-Dec-11 07:58N 45°13' E 036°31'0 0.0
2017-Dec-11 06:31N 45°13' E 036°31'0 0.0
2017-Dec-11 06:11N 45°13' E 036°31'0 0.1
2017-Dec-11 06:00N 45°13' E 036°31'0 0.0
2017-Dec-11 04:26N 45°13' E 036°31'0 0.0
2017-Dec-10 21:44N 45°13' E 036°31'0 0.0
2017-Dec-10 21:30N 45°13' E 036°31'0 0.0
2017-Dec-10 18:41N 45°13' E 036°31'0 0.0
2017-Dec-10 18:23N 45°13' E 036°31'0 0.0
2017-Dec-10 18:00N 45°13' E 036°31'0 0.0
2017-Dec-10 13:28N 45°13' E 036°31'0 0.0
2017-Dec-10 12:56N 45°13' E 036°31'0 0.0
2017-Dec-10 06:36N 45°13' E 036°31'0 0.0
2017-Dec-10 03:20N 45°13' E 036°31'0 0.0
2017-Dec-09 07:21N 45°13' E 036°31'0 0.0
2017-Dec-09 06:01N 45°13' E 036°31'0 0.1
2017-Dec-09 05:57N 45°13' E 036°31'0 0.0
2017-Dec-09 05:29N 45°13' E 036°31'0 0.0
2017-Dec-09 04:59N 45°13' E 036°31'0 0.0
2017-Dec-09 04:28N 45°13' E 036°31'0 0.0
2017-Dec-09 03:55N 45°13' E 036°31'0 0.0
2017-Dec-09 03:19N 45°13' E 036°31'0 0.0
2017-Dec-09 02:58N 45°13' E 036°31'0 0.0
2017-Dec-09 02:28N 45°13' E 036°31'0 0.0
2017-Dec-09 02:00N 45°13' E 036°31'0 0.0
2017-Dec-09 01:30N 45°13' E 036°31'1 0.7
2017-Dec-09 00:38N 45°14' E 036°30'1 6.0
2017-Dec-09 00:30N 45°14' E 036°29'3 5.0
2017-Dec-08 23:58N 45°17' E 036°29'2 5.3
2017-Dec-08 23:30N 45°19' E 036°31'3 5.4
2017-Dec-08 23:00N 45°19' E 036°35'2 4.9
2017-Dec-08 22:30N 45°20' E 036°38'2 4.9
2017-Dec-08 22:00N 45°22' E 036°41'2 3.1
2017-Dec-08 21:30N 45°23' E 036°42'0 0.0
2017-Dec-08 20:59N 45°23' E 036°42'0 0.1
2017-Dec-08 20:27N 45°23' E 036°42'0 0.0
2017-Dec-08 19:57N 45°23' E 036°42'0 0.0
2017-Dec-08 19:29N 45°23' E 036°42'0 0.0
2017-Dec-08 18:58N 45°23' E 036°42'0 0.0
2017-Dec-08 18:24N 45°23' E 036°42'0 0.1
2017-Dec-08 17:53N 45°23' E 036°42'0 0.1
2017-Dec-08 17:28N 45°23' E 036°42'0 0.1
2017-Dec-08 17:00N 45°23' E 036°42'0 0.1
2017-Dec-08 16:30N 45°23' E 036°42'0 0.0
2017-Dec-08 15:58N 45°23' E 036°42'0 0.0
2017-Dec-08 15:28N 45°23' E 036°42'0 0.0
2017-Dec-08 15:00N 45°23' E 036°42'0 0.0
2017-Dec-08 14:29N 45°23' E 036°42'0 0.0
2017-Dec-08 13:57N 45°23' E 036°42'0 0.1
2017-Dec-08 13:27N 45°23' E 036°42'0 0.0
2017-Dec-08 12:55N 45°23' E 036°42'0 0.0
2017-Dec-08 12:28N 45°23' E 036°42'0 0.1
2017-Dec-08 12:00N 45°23' E 036°42'0 0.0
2017-Dec-08 11:28N 45°23' E 036°42'0 0.1
2017-Dec-08 10:59N 45°23' E 036°42'0 0.0
2017-Dec-08 10:24N 45°23' E 036°42'0 0.1
2017-Dec-08 10:00N 45°23' E 036°42'0 0.0
2017-Dec-08 09:29N 45°23' E 036°42'0 0.1
2017-Dec-08 09:00N 45°23' E 036°42'0 0.0
2017-Dec-08 08:27N 45°23' E 036°42'0 0.0
2017-Dec-08 07:59N 45°23' E 036°42'0 0.0
2017-Dec-08 07:28N 45°23' E 036°42'0 0.0
2017-Dec-08 07:00N 45°23' E 036°42'0 0.0
2017-Dec-08 06:27N 45°23' E 036°42'0 0.0
2017-Dec-08 06:00N 45°23' E 036°42'0 0.0
2017-Dec-08 05:29N 45°23' E 036°42'0 0.0
2017-Dec-08 04:58N 45°23' E 036°42'0 0.0
2017-Dec-08 04:28N 45°23' E 036°42'0 0.0
2017-Dec-08 04:00N 45°23' E 036°42'0 0.0
2017-Dec-08 03:30N 45°23' E 036°42'0 0.0
2017-Dec-08 03:00N 45°23' E 036°42'0 0.0
2017-Dec-08 02:29N 45°23' E 036°42'0 0.0
2017-Dec-08 02:00N 45°23' E 036°42'0 0.0
2017-Dec-08 01:28N 45°23' E 036°42'0 0.0
2017-Dec-08 00:58N 45°23' E 036°42'0 0.0
2017-Dec-08 00:29N 45°23' E 036°42'0 0.0
2017-Dec-08 00:00N 45°23' E 036°42'0 0.0
2017-Dec-07 23:29N 45°23' E 036°42'0 0.0
2017-Dec-07 23:00N 45°23' E 036°42'0 0.0
2017-Dec-07 22:23N 45°23' E 036°42'0 0.0
2017-Dec-07 22:00N 45°23' E 036°42'0 0.0
2017-Dec-07 21:25N 45°23' E 036°42'0 0.0
2017-Dec-07 20:55N 45°23' E 036°42'0 0.0
2017-Dec-07 20:30N 45°23' E 036°42'0 0.0
2017-Dec-07 19:59N 45°23' E 036°42'0 0.0
2017-Dec-07 19:30N 45°23' E 036°42'0 0.0
2017-Dec-07 18:56N 45°23' E 036°42'0 0.0
2017-Dec-07 18:30N 45°23' E 036°42'0 0.0
2017-Dec-07 18:00N 45°23' E 036°42'0 0.0
2017-Dec-07 17:29N 45°23' E 036°42'0 0.0
2017-Dec-07 16:56N 45°23' E 036°42'0 0.0
2017-Dec-07 16:28N 45°23' E 036°42'0 0.0
2017-Dec-07 16:00N 45°23' E 036°42'0 0.0
2017-Dec-07 15:29N 45°23' E 036°42'0 0.0
2017-Dec-07 14:58N 45°23' E 036°42'0 0.0
2017-Dec-07 14:30N 45°23' E 036°42'0 0.0
2017-Dec-07 13:57N 45°23' E 036°42'0 0.0
2017-Dec-07 13:27N 45°23' E 036°42'0 0.0
2017-Dec-07 12:58N 45°23' E 036°42'0 0.0
2017-Dec-07 12:23N 45°23' E 036°42'0 0.0
2017-Dec-07 11:59N 45°23' E 036°42'0 0.0
2017-Dec-07 11:30N 45°23' E 036°42'0 0.0
2017-Dec-07 10:58N 45°23' E 036°42'0 0.0
2017-Dec-07 10:23N 45°23' E 036°42'0 0.0
2017-Dec-07 09:59N 45°23' E 036°42'0 0.0
2017-Dec-07 09:27N 45°23' E 036°42'0 0.0
2017-Dec-07 08:57N 45°23' E 036°42'0 0.0
2017-Dec-07 08:27N 45°23' E 036°42'0 0.0
2017-Dec-07 08:00N 45°23' E 036°42'0 0.0
2017-Dec-07 07:30N 45°23' E 036°42'0 0.0
2017-Dec-07 06:59N 45°23' E 036°42'0 0.0
2017-Dec-07 06:30N 45°23' E 036°42'0 0.0
2017-Dec-07 06:00N 45°23' E 036°42'0 0.0
2017-Dec-07 05:26N 45°23' E 036°42'0 0.0
2017-Dec-07 04:58N 45°23' E 036°42'0 0.0
2017-Dec-07 04:29N 45°23' E 036°42'0 0.0
2017-Dec-07 04:00N 45°23' E 036°42'0 0.0
2017-Dec-07 03:29N 45°23' E 036°42'0 0.0
2017-Dec-07 03:00N 45°23' E 036°42'0 0.0
2017-Dec-07 02:29N 45°23' E 036°42'0 0.0
2017-Dec-07 02:00N 45°23' E 036°42'0 0.0
2017-Dec-07 01:29N 45°23' E 036°42'0 0.0
2017-Dec-07 00:59N 45°23' E 036°42'0 0.0
2017-Dec-07 00:25N 45°23' E 036°42'0 0.0
2017-Dec-06 23:53N 45°23' E 036°42'0 0.0
2017-Dec-06 23:29N 45°23' E 036°42'0 0.0
2017-Dec-06 22:58N 45°23' E 036°42'0 0.0
2017-Dec-06 22:30N 45°23' E 036°42'0 0.0
2017-Dec-06 21:59N 45°23' E 036°42'0 0.0
2017-Dec-06 21:29N 45°23' E 036°42'0 0.0
2017-Dec-06 20:56N 45°23' E 036°42'  
2017-Dec-04 10:29N 45°23' E 036°42'0 0.0
2017-Dec-04 09:59N 45°23' E 036°42'0 0.0
2017-Dec-04 09:28N 45°23' E 036°42'0 0.0
2017-Dec-04 08:55N 45°23' E 036°42'0 0.0
2017-Dec-04 08:30N 45°23' E 036°42'0 0.0
2017-Dec-04 08:00N 45°23' E 036°42'0 0.0
2017-Dec-04 07:28N 45°23' E 036°42'0 0.1
2017-Dec-04 06:58N 45°23' E 036°42'0 0.0
2017-Dec-04 06:20N 45°23' E 036°42'0 0.1
2017-Dec-04 05:57N 45°23' E 036°42'0 0.0
2017-Dec-04 05:31N 45°23' E 036°42'0 0.0
2017-Dec-04 04:58N 45°23' E 036°42'0 0.0
2017-Dec-04 04:24N 45°23' E 036°42'0 0.0
2017-Dec-04 03:54N 45°23' E 036°42'0 0.0
2017-Dec-04 03:29N 45°23' E 036°42'0 0.0
2017-Dec-04 02:57N 45°23' E 036°42'0 0.0
2017-Dec-04 02:28N 45°23' E 036°42'0 0.0
2017-Dec-04 01:59N 45°23' E 036°42'0 0.0
2017-Dec-04 01:28N 45°23' E 036°42'0 0.0
2017-Dec-04 00:58N 45°23' E 036°42'0 0.0
2017-Dec-04 00:23N 45°23' E 036°42'0 0.0
2017-Dec-03 23:58N 45°23' E 036°42'0 0.0
2017-Dec-03 23:30N 45°23' E 036°42'0 0.0
2017-Dec-03 23:00N 45°23' E 036°42'0 0.0
2017-Dec-03 22:28N 45°23' E 036°42'0 0.0
2017-Dec-03 21:59N 45°23' E 036°42'0 0.0
2017-Dec-03 21:28N 45°23' E 036°42'0 0.0
2017-Dec-03 21:01N 45°23' E 036°42'0 0.0
2017-Dec-03 20:29N 45°23' E 036°42'0 0.0
2017-Dec-03 19:59N 45°23' E 036°42'0 0.0
2017-Dec-03 19:29N 45°23' E 036°42'0 0.0
2017-Dec-03 18:58N 45°23' E 036°42'0 0.0
2017-Dec-03 18:23N 45°23' E 036°42'0 0.1
2017-Dec-03 17:58N 45°23' E 036°42'0 0.0
2017-Dec-03 17:28N 45°23' E 036°42'0 0.0
2017-Dec-03 16:58N 45°23' E 036°42'0 0.0
2017-Dec-03 16:26N 45°23' E 036°42'0 0.0
2017-Dec-03 16:01N 45°23' E 036°42'0 0.0
2017-Dec-03 15:27N 45°23' E 036°42'0 0.1
2017-Dec-03 14:58N 45°23' E 036°42'0 0.0
2017-Dec-03 14:24N 45°23' E 036°42'0 0.0
2017-Dec-03 14:00N 45°23' E 036°42'0 0.0
2017-Dec-03 13:29N 45°23' E 036°42'0 0.0
2017-Dec-03 12:57N 45°23' E 036°42'0 0.0
2017-Dec-03 12:28N 45°23' E 036°42'0 0.0
2017-Dec-03 12:01N 45°23' E 036°42'0 0.0
2017-Dec-03 11:27N 45°23' E 036°42'0 0.0
2017-Dec-03 10:57N 45°23' E 036°42'0 0.0
2017-Dec-03 10:26N 45°23' E 036°42'0 0.0
2017-Dec-03 09:51N 45°23' E 036°42'0 0.0
2017-Dec-03 09:30N 45°23' E 036°42'0 0.0
2017-Dec-03 08:55N 45°23' E 036°42'0 0.0
2017-Dec-03 08:24N 45°23' E 036°42'0 0.0
2017-Dec-03 08:01N 45°23' E 036°42'0 0.0
2017-Dec-03 07:30N 45°23' E 036°42'0 0.0
2017-Dec-03 06:58N 45°23' E 036°42'0 0.0
2017-Dec-03 06:31N 45°23' E 036°42'0 0.0
2017-Dec-03 05:54N 45°23' E 036°42'0 0.0
2017-Dec-03 05:28N 45°23' E 036°42'0 0.0
2017-Dec-03 04:59N 45°23' E 036°42'0 0.0
2017-Dec-03 04:26N 45°23' E 036°42'0 0.0
2017-Dec-03 04:00N 45°23' E 036°42'0 0.0
2017-Dec-03 03:28N 45°23' E 036°42'0 0.2
2017-Dec-03 02:59N 45°23' E 036°42'0 0.0
2017-Dec-03 02:25N 45°23' E 036°42'0 0.0
2017-Dec-03 02:00N 45°23' E 036°42'0 0.1
2017-Dec-03 01:28N 45°23' E 036°42'0 0.0
2017-Dec-03 00:59N 45°23' E 036°42'0 0.0
2017-Dec-03 00:25N 45°23' E 036°42'0 0.0
2017-Dec-03 00:00N 45°23' E 036°42'0 0.0
2017-Dec-02 23:30N 45°23' E 036°42'0 0.0
2017-Dec-02 23:00N 45°23' E 036°42'0 0.0
2017-Dec-02 22:23N 45°23' E 036°42'0 0.1
2017-Dec-02 21:54N 45°23' E 036°42'0 0.0
2017-Dec-02 21:31N 45°23' E 036°42'0 0.0
2017-Dec-02 20:58N 45°23' E 036°42'0 0.1
2017-Dec-02 20:23N 45°23' E 036°42'0 0.0
2017-Dec-02 19:59N 45°23' E 036°42'0 0.0
2017-Dec-02 19:27N 45°23' E 036°42'0 0.1
2017-Dec-02 18:58N 45°23' E 036°42'0 0.0
2017-Dec-02 18:30N 45°23' E 036°42'0 0.0
2017-Dec-02 18:01N 45°23' E 036°42'0 0.1
2017-Dec-02 17:26N 45°23' E 036°42'0 0.1
2017-Dec-02 16:58N 45°23' E 036°42'0 0.0
2017-Dec-02 16:27N 45°23' E 036°42'0 0.2
2017-Dec-02 15:59N 45°23' E 036°42'0 0.1
2017-Dec-02 15:28N 45°23' E 036°42'0 0.1
2017-Dec-02 14:54N 45°23' E 036°42'0 0.0
2017-Dec-02 14:30N 45°23' E 036°42'0 0.1
2017-Dec-02 14:00N 45°23' E 036°42'0 0.1
2017-Dec-02 13:27N 45°23' E 036°42'0 0.1
2017-Dec-02 13:00N 45°23' E 036°42'0 0.1
2017-Dec-02 12:28N 45°23' E 036°42'0 0.1
2017-Dec-02 12:00N 45°23' E 036°42'0 0.1
2017-Dec-02 11:27N 45°23' E 036°42'0 0.0
2017-Dec-02 10:57N 45°23' E 036°42'0 0.0
2017-Dec-02 10:30N 45°23' E 036°42'0 0.0
2017-Dec-02 09:54N 45°23' E 036°42'0 0.0
2017-Dec-02 09:30N 45°23' E 036°42'0 0.1
2017-Dec-02 08:57N 45°23' E 036°42'0 0.0
2017-Dec-02 08:25N 45°23' E 036°42'0 0.0
2017-Dec-02 07:59N 45°23' E 036°42'0 0.0
2017-Dec-02 07:30N 45°23' E 036°42'0 0.0
2017-Dec-02 06:58N 45°23' E 036°42'0 0.0
2017-Dec-02 06:31N 45°23' E 036°42'0 0.0
2017-Dec-02 05:59N 45°23' E 036°42'0 0.0
2017-Dec-02 05:26N 45°23' E 036°42'0 0.0
2017-Dec-02 04:59N 45°23' E 036°42'0 0.0
2017-Dec-02 04:25N 45°23' E 036°42'0 0.0
2017-Dec-02 03:58N 45°23' E 036°42'0 0.0
2017-Dec-02 03:30N 45°23' E 036°42'0 0.0
2017-Dec-02 03:00N 45°23' E 036°42'0 0.0
2017-Dec-02 02:30N 45°23' E 036°42'0 0.0
2017-Dec-02 01:58N 45°23' E 036°42'0 0.0
2017-Dec-02 01:26N 45°23' E 036°42'0 0.0
2017-Dec-02 00:58N 45°23' E 036°42'0 0.0
2017-Dec-02 00:28N 45°23' E 036°42'0 0.0
2017-Dec-01 23:57N 45°23' E 036°42'0 0.0
2017-Dec-01 23:29N 45°23' E 036°42'0 0.0
2017-Dec-01 23:00N 45°23' E 036°42'0 0.0
2017-Dec-01 22:22N 45°23' E 036°42'0 0.0
2017-Dec-01 21:59N 45°23' E 036°42'0 0.0
2017-Dec-01 21:27N 45°23' E 036°42'0 0.0
2017-Dec-01 20:58N 45°23' E 036°42'0 0.0
2017-Dec-01 20:29N 45°23' E 036°42'0 0.0
2017-Dec-01 19:58N 45°23' E 036°42'0 0.0
2017-Dec-01 19:27N 45°23' E 036°42'0 0.0
2017-Dec-01 18:56N 45°23' E 036°42'0 0.1
2017-Dec-01 18:28N 45°23' E 036°42'0 0.0
2017-Dec-01 17:58N 45°23' E 036°42'0 0.0
2017-Dec-01 17:28N 45°23' E 036°42'0 0.0
2017-Dec-01 16:59N 45°23' E 036°42'  
Track history (hours):
 
Tides and Currents Weather Stations Pressure Air Temp Water Temp Dewpoint Dewpoint Depression Visibility Wind Speed Wind Dir Waves Ship Positions

Inzhener Nazarov

Last reported at 2017-Dec-11 16:39 UTC. Time now 2017-Dec-12 23:43 UTC.
Position N 45°13' E 036°31'.

Length 132 m; draft 3.5 m.

Type: Tanker. MMSI: 273310100.

Date/timePositionNaut miles runAvg speedWind from/ knotsBaromVisibWave heightAir tempDewpointWater temp
2017-Dec-11 16:39N 45°13' E 036°31'0 0.0
2017-Dec-11 16:30N 45°13' E 036°31'0 0.0
2017-Dec-11 15:45N 45°13' E 036°31'0 0.0
2017-Dec-11 15:30N 45°13' E 036°31'0 0.0
2017-Dec-11 14:57N 45°13' E 036°31'0 0.0
2017-Dec-11 14:16N 45°13' E 036°31'0 0.0
2017-Dec-11 14:00N 45°13' E 036°31'0 0.0
2017-Dec-11 13:30N 45°13' E 036°31'0 0.0
2017-Dec-11 12:58N 45°13' E 036°31'0 0.0
2017-Dec-11 12:25N 45°13' E 036°31'0 0.0
2017-Dec-11 11:51N 45°13' E 036°31'0 0.0
2017-Dec-11 11:28N 45°13' E 036°31'0 0.0
2017-Dec-11 10:57N 45°13' E 036°31'0 0.0
2017-Dec-11 10:29N 45°13' E 036°31'0 0.0
2017-Dec-11 09:51N 45°13' E 036°31'0 0.0
2017-Dec-11 09:28N 45°13' E 036°31'0 0.0
2017-Dec-11 08:58N 45°13' E 036°31'0 0.0
2017-Dec-11 08:23N 45°13' E 036°31'0 0.0
2017-Dec-11 07:58N 45°13' E 036°31'0 0.0
2017-Dec-11 06:31N 45°13' E 036°31'0 0.0
2017-Dec-11 06:11N 45°13' E 036°31'0 0.1
2017-Dec-11 06:00N 45°13' E 036°31'0 0.0
2017-Dec-11 04:26N 45°13' E 036°31'0 0.0
2017-Dec-10 21:44N 45°13' E 036°31'0 0.0
2017-Dec-10 21:30N 45°13' E 036°31'0 0.0
2017-Dec-10 18:41N 45°13' E 036°31'0 0.0
2017-Dec-10 18:23N 45°13' E 036°31'0 0.0
2017-Dec-10 18:00N 45°13' E 036°31'0 0.0
2017-Dec-10 13:28N 45°13' E 036°31'0 0.0
2017-Dec-10 12:56N 45°13' E 036°31'0 0.0
2017-Dec-10 06:36N 45°13' E 036°31'0 0.0
2017-Dec-10 03:20N 45°13' E 036°31'0 0.0
2017-Dec-09 07:21N 45°13' E 036°31'0 0.0
2017-Dec-09 06:01N 45°13' E 036°31'0 0.1
2017-Dec-09 05:57N 45°13' E 036°31'0 0.0
2017-Dec-09 05:29N 45°13' E 036°31'0 0.0
2017-Dec-09 04:59N 45°13' E 036°31'0 0.0
2017-Dec-09 04:28N 45°13' E 036°31'0 0.0
2017-Dec-09 03:55N 45°13' E 036°31'0 0.0
2017-Dec-09 03:19N 45°13' E 036°31'0 0.0
2017-Dec-09 02:58N 45°13' E 036°31'0 0.0
2017-Dec-09 02:28N 45°13' E 036°31'0 0.0
2017-Dec-09 02:00N 45°13' E 036°31'0 0.0
2017-Dec-09 01:30N 45°13' E 036°31'1 0.7
2017-Dec-09 00:38N 45°14' E 036°30'1 6.0
2017-Dec-09 00:30N 45°14' E 036°29'3 5.0
2017-Dec-08 23:58N 45°17' E 036°29'2 5.3
2017-Dec-08 23:30N 45°19' E 036°31'3 5.4
2017-Dec-08 23:00N 45°19' E 036°35'2 4.9
2017-Dec-08 22:30N 45°20' E 036°38'2 4.9
2017-Dec-08 22:00N 45°22' E 036°41'2 3.1
2017-Dec-08 21:30N 45°23' E 036°42'0 0.0
2017-Dec-08 20:59N 45°23' E 036°42'0 0.1
2017-Dec-08 20:27N 45°23' E 036°42'0 0.0
2017-Dec-08 19:57N 45°23' E 036°42'0 0.0
2017-Dec-08 19:29N 45°23' E 036°42'0 0.0
2017-Dec-08 18:58N 45°23' E 036°42'0 0.0
2017-Dec-08 18:24N 45°23' E 036°42'0 0.1
2017-Dec-08 17:53N 45°23' E 036°42'0 0.1
2017-Dec-08 17:28N 45°23' E 036°42'0 0.1
2017-Dec-08 17:00N 45°23' E 036°42'0 0.1
2017-Dec-08 16:30N 45°23' E 036°42'0 0.0
2017-Dec-08 15:58N 45°23' E 036°42'0 0.0
2017-Dec-08 15:28N 45°23' E 036°42'0 0.0
2017-Dec-08 15:00N 45°23' E 036°42'0 0.0
2017-Dec-08 14:29N 45°23' E 036°42'0 0.0
2017-Dec-08 13:57N 45°23' E 036°42'0 0.1
2017-Dec-08 13:27N 45°23' E 036°42'0 0.0
2017-Dec-08 12:55N 45°23' E 036°42'0 0.0
2017-Dec-08 12:28N 45°23' E 036°42'0 0.1
2017-Dec-08 12:00N 45°23' E 036°42'0 0.0
2017-Dec-08 11:28N 45°23' E 036°42'0 0.1
2017-Dec-08 10:59N 45°23' E 036°42'0 0.0
2017-Dec-08 10:24N 45°23' E 036°42'0 0.1
2017-Dec-08 10:00N 45°23' E 036°42'0 0.0
2017-Dec-08 09:29N 45°23' E 036°42'0 0.1
2017-Dec-08 09:00N 45°23' E 036°42'0 0.0
2017-Dec-08 08:27N 45°23' E 036°42'0 0.0
2017-Dec-08 07:59N 45°23' E 036°42'0 0.0
2017-Dec-08 07:28N 45°23' E 036°42'0 0.0
2017-Dec-08 07:00N 45°23' E 036°42'0 0.0
2017-Dec-08 06:27N 45°23' E 036°42'0 0.0
2017-Dec-08 06:00N 45°23' E 036°42'0 0.0
2017-Dec-08 05:29N 45°23' E 036°42'0 0.0
2017-Dec-08 04:58N 45°23' E 036°42'0 0.0
2017-Dec-08 04:28N 45°23' E 036°42'0 0.0
2017-Dec-08 04:00N 45°23' E 036°42'0 0.0
2017-Dec-08 03:30N 45°23' E 036°42'0 0.0
2017-Dec-08 03:00N 45°23' E 036°42'0 0.0
2017-Dec-08 02:29N 45°23' E 036°42'0 0.0
2017-Dec-08 02:00N 45°23' E 036°42'0 0.0
2017-Dec-08 01:28N 45°23' E 036°42'0 0.0
2017-Dec-08 00:58N 45°23' E 036°42'0 0.0
2017-Dec-08 00:29N 45°23' E 036°42'0 0.0
2017-Dec-08 00:00N 45°23' E 036°42'0 0.0
2017-Dec-07 23:29N 45°23' E 036°42'0 0.0
2017-Dec-07 23:00N 45°23' E 036°42'0 0.0
2017-Dec-07 22:23N 45°23' E 036°42'0 0.0
2017-Dec-07 22:00N 45°23' E 036°42'0 0.0
2017-Dec-07 21:25N 45°23' E 036°42'0 0.0
2017-Dec-07 20:55N 45°23' E 036°42'0 0.0
2017-Dec-07 20:30N 45°23' E 036°42'0 0.0
2017-Dec-07 19:59N 45°23' E 036°42'0 0.0
2017-Dec-07 19:30N 45°23' E 036°42'0 0.0
2017-Dec-07 18:56N 45°23' E 036°42'0 0.0
2017-Dec-07 18:30N 45°23' E 036°42'0 0.0
2017-Dec-07 18:00N 45°23' E 036°42'0 0.0
2017-Dec-07 17:29N 45°23' E 036°42'0 0.0
2017-Dec-07 16:56N 45°23' E 036°42'0 0.0
2017-Dec-07 16:28N 45°23' E 036°42'0 0.0
2017-Dec-07 16:00N 45°23' E 036°42'0 0.0
2017-Dec-07 15:29N 45°23' E 036°42'0 0.0
2017-Dec-07 14:58N 45°23' E 036°42'0 0.0
2017-Dec-07 14:30N 45°23' E 036°42'0 0.0
2017-Dec-07 13:57N 45°23' E 036°42'0 0.0
2017-Dec-07 13:27N 45°23' E 036°42'0 0.0
2017-Dec-07 12:58N 45°23' E 036°42'0 0.0
2017-Dec-07 12:23N 45°23' E 036°42'0 0.0
2017-Dec-07 11:59N 45°23' E 036°42'0 0.0
2017-Dec-07 11:30N 45°23' E 036°42'0 0.0
2017-Dec-07 10:58N 45°23' E 036°42'0 0.0
2017-Dec-07 10:23N 45°23' E 036°42'0 0.0
2017-Dec-07 09:59N 45°23' E 036°42'0 0.0
2017-Dec-07 09:27N 45°23' E 036°42'0 0.0
2017-Dec-07 08:57N 45°23' E 036°42'0 0.0
2017-Dec-07 08:27N 45°23' E 036°42'0 0.0
2017-Dec-07 08:00N 45°23' E 036°42'0 0.0
2017-Dec-07 07:30N 45°23' E 036°42'0 0.0
2017-Dec-07 06:59N 45°23' E 036°42'0 0.0
2017-Dec-07 06:30N 45°23' E 036°42'0 0.0
2017-Dec-07 06:00N 45°23' E 036°42'0 0.0
2017-Dec-07 05:26N 45°23' E 036°42'0 0.0
2017-Dec-07 04:58N 45°23' E 036°42'0 0.0
2017-Dec-07 04:29N 45°23' E 036°42'0 0.0
2017-Dec-07 04:00N 45°23' E 036°42'0 0.0
2017-Dec-07 03:29N 45°23' E 036°42'0 0.0
2017-Dec-07 03:00N 45°23' E 036°42'0 0.0
2017-Dec-07 02:29N 45°23' E 036°42'0 0.0
2017-Dec-07 02:00N 45°23' E 036°42'0 0.0
2017-Dec-07 01:29N 45°23' E 036°42'0 0.0
2017-Dec-07 00:59N 45°23' E 036°42'0 0.0
2017-Dec-07 00:25N 45°23' E 036°42'0 0.0
2017-Dec-06 23:53N 45°23' E 036°42'0 0.0
2017-Dec-06 23:29N 45°23' E 036°42'0 0.0
2017-Dec-06 22:58N 45°23' E 036°42'0 0.0
2017-Dec-06 22:30N 45°23' E 036°42'0 0.0
2017-Dec-06 21:59N 45°23' E 036°42'0 0.0
2017-Dec-06 21:29N 45°23' E 036°42'0 0.0
2017-Dec-06 20:56N 45°23' E 036°42'  
2017-Dec-04 10:29N 45°23' E 036°42'0 0.0
2017-Dec-04 09:59N 45°23' E 036°42'0 0.0
2017-Dec-04 09:28N 45°23' E 036°42'0 0.0
2017-Dec-04 08:55N 45°23' E 036°42'0 0.0
2017-Dec-04 08:30N 45°23' E 036°42'0 0.0
2017-Dec-04 08:00N 45°23' E 036°42'0 0.0
2017-Dec-04 07:28N 45°23' E 036°42'0 0.1
2017-Dec-04 06:58N 45°23' E 036°42'0 0.0
2017-Dec-04 06:20N 45°23' E 036°42'0 0.1
2017-Dec-04 05:57N 45°23' E 036°42'0 0.0
2017-Dec-04 05:31N 45°23' E 036°42'0 0.0
2017-Dec-04 04:58N 45°23' E 036°42'0 0.0
2017-Dec-04 04:24N 45°23' E 036°42'0 0.0
2017-Dec-04 03:54N 45°23' E 036°42'0 0.0
2017-Dec-04 03:29N 45°23' E 036°42'0 0.0
2017-Dec-04 02:57N 45°23' E 036°42'0 0.0
2017-Dec-04 02:28N 45°23' E 036°42'0 0.0
2017-Dec-04 01:59N 45°23' E 036°42'0 0.0
2017-Dec-04 01:28N 45°23' E 036°42'0 0.0
2017-Dec-04 00:58N 45°23' E 036°42'0 0.0
2017-Dec-04 00:23N 45°23' E 036°42'0 0.0
2017-Dec-03 23:58N 45°23' E 036°42'0 0.0
2017-Dec-03 23:30N 45°23' E 036°42'0 0.0
2017-Dec-03 23:00N 45°23' E 036°42'0 0.0
2017-Dec-03 22:28N 45°23' E 036°42'0 0.0
2017-Dec-03 21:59N 45°23' E 036°42'0 0.0
2017-Dec-03 21:28N 45°23' E 036°42'0 0.0
2017-Dec-03 21:01N 45°23' E 036°42'0 0.0
2017-Dec-03 20:29N 45°23' E 036°42'0 0.0
2017-Dec-03 19:59N 45°23' E 036°42'0 0.0
2017-Dec-03 19:29N 45°23' E 036°42'0 0.0
2017-Dec-03 18:58N 45°23' E 036°42'0 0.0
2017-Dec-03 18:23N 45°23' E 036°42'0 0.1
2017-Dec-03 17:58N 45°23' E 036°42'0 0.0
2017-Dec-03 17:28N 45°23' E 036°42'0 0.0
2017-Dec-03 16:58N 45°23' E 036°42'0 0.0
2017-Dec-03 16:26N 45°23' E 036°42'0 0.0
2017-Dec-03 16:01N 45°23' E 036°42'0 0.0
2017-Dec-03 15:27N 45°23' E 036°42'0 0.1
2017-Dec-03 14:58N 45°23' E 036°42'0 0.0
2017-Dec-03 14:24N 45°23' E 036°42'0 0.0
2017-Dec-03 14:00N 45°23' E 036°42'0 0.0
2017-Dec-03 13:29N 45°23' E 036°42'0 0.0
2017-Dec-03 12:57N 45°23' E 036°42'0 0.0
2017-Dec-03 12:28N 45°23' E 036°42'0 0.0
2017-Dec-03 12:01N 45°23' E 036°42'0 0.0
2017-Dec-03 11:27N 45°23' E 036°42'0 0.0
2017-Dec-03 10:57N 45°23' E 036°42'0 0.0
2017-Dec-03 10:26N 45°23' E 036°42'0 0.0
2017-Dec-03 09:51N 45°23' E 036°42'0 0.0
2017-Dec-03 09:30N 45°23' E 036°42'0 0.0
2017-Dec-03 08:55N 45°23' E 036°42'0 0.0
2017-Dec-03 08:24N 45°23' E 036°42'0 0.0
2017-Dec-03 08:01N 45°23' E 036°42'0 0.0
2017-Dec-03 07:30N 45°23' E 036°42'0 0.0
2017-Dec-03 06:58N 45°23' E 036°42'0 0.0
2017-Dec-03 06:31N 45°23' E 036°42'0 0.0
2017-Dec-03 05:54N 45°23' E 036°42'0 0.0
2017-Dec-03 05:28N 45°23' E 036°42'0 0.0
2017-Dec-03 04:59N 45°23' E 036°42'0 0.0
2017-Dec-03 04:26N 45°23' E 036°42'0 0.0
2017-Dec-03 04:00N 45°23' E 036°42'0 0.0
2017-Dec-03 03:28N 45°23' E 036°42'0 0.2
2017-Dec-03 02:59N 45°23' E 036°42'0 0.0
2017-Dec-03 02:25N 45°23' E 036°42'0 0.0
2017-Dec-03 02:00N 45°23' E 036°42'0 0.1
2017-Dec-03 01:28N 45°23' E 036°42'0 0.0
2017-Dec-03 00:59N 45°23' E 036°42'0 0.0
2017-Dec-03 00:25N 45°23' E 036°42'0 0.0
2017-Dec-03 00:00N 45°23' E 036°42'0 0.0
2017-Dec-02 23:30N 45°23' E 036°42'0 0.0
2017-Dec-02 23:00N 45°23' E 036°42'0 0.0
2017-Dec-02 22:23N 45°23' E 036°42'0 0.1
2017-Dec-02 21:54N 45°23' E 036°42'0 0.0
2017-Dec-02 21:31N 45°23' E 036°42'0 0.0
2017-Dec-02 20:58N 45°23' E 036°42'0 0.1
2017-Dec-02 20:23N 45°23' E 036°42'0 0.0
2017-Dec-02 19:59N 45°23' E 036°42'0 0.0
2017-Dec-02 19:27N 45°23' E 036°42'0 0.1
2017-Dec-02 18:58N 45°23' E 036°42'0 0.0
2017-Dec-02 18:30N 45°23' E 036°42'0 0.0
2017-Dec-02 18:01N 45°23' E 036°42'0 0.1
2017-Dec-02 17:26N 45°23' E 036°42'0 0.1
2017-Dec-02 16:58N 45°23' E 036°42'0 0.0
2017-Dec-02 16:27N 45°23' E 036°42'0 0.2
2017-Dec-02 15:59N 45°23' E 036°42'0 0.1
2017-Dec-02 15:28N 45°23' E 036°42'0 0.1
2017-Dec-02 14:54N 45°23' E 036°42'0 0.0
2017-Dec-02 14:30N 45°23' E 036°42'0 0.1
2017-Dec-02 14:00N 45°23' E 036°42'0 0.1
2017-Dec-02 13:27N 45°23' E 036°42'0 0.1
2017-Dec-02 13:00N 45°23' E 036°42'0 0.1
2017-Dec-02 12:28N 45°23' E 036°42'0 0.1
2017-Dec-02 12:00N 45°23' E 036°42'0 0.1
2017-Dec-02 11:27N 45°23' E 036°42'0 0.0
2017-Dec-02 10:57N 45°23' E 036°42'0 0.0
2017-Dec-02 10:30N 45°23' E 036°42'0 0.0
2017-Dec-02 09:54N 45°23' E 036°42'0 0.0
2017-Dec-02 09:30N 45°23' E 036°42'0 0.1
2017-Dec-02 08:57N 45°23' E 036°42'0 0.0
2017-Dec-02 08:25N 45°23' E 036°42'0 0.0
2017-Dec-02 07:59N 45°23' E 036°42'0 0.0
2017-Dec-02 07:30N 45°23' E 036°42'0 0.0
2017-Dec-02 06:58N 45°23' E 036°42'0 0.0
2017-Dec-02 06:31N 45°23' E 036°42'0 0.0
2017-Dec-02 05:59N 45°23' E 036°42'0 0.0
2017-Dec-02 05:26N 45°23' E 036°42'0 0.0
2017-Dec-02 04:59N 45°23' E 036°42'0 0.0
2017-Dec-02 04:25N 45°23' E 036°42'0 0.0
2017-Dec-02 03:58N 45°23' E 036°42'0 0.0
2017-Dec-02 03:30N 45°23' E 036°42'0 0.0
2017-Dec-02 03:00N 45°23' E 036°42'0 0.0
2017-Dec-02 02:30N 45°23' E 036°42'0 0.0
2017-Dec-02 01:58N 45°23' E 036°42'0 0.0
2017-Dec-02 01:26N 45°23' E 036°42'0 0.0
2017-Dec-02 00:58N 45°23' E 036°42'0 0.0
2017-Dec-02 00:28N 45°23' E 036°42'0 0.0
2017-Dec-01 23:57N 45°23' E 036°42'0 0.0
2017-Dec-01 23:29N 45°23' E 036°42'0 0.0
2017-Dec-01 23:00N 45°23' E 036°42'0 0.0
2017-Dec-01 22:22N 45°23' E 036°42'0 0.0
2017-Dec-01 21:59N 45°23' E 036°42'0 0.0
2017-Dec-01 21:27N 45°23' E 036°42'0 0.0
2017-Dec-01 20:58N 45°23' E 036°42'0 0.0
2017-Dec-01 20:29N 45°23' E 036°42'0 0.0
2017-Dec-01 19:58N 45°23' E 036°42'0 0.0
2017-Dec-01 19:27N 45°23' E 036°42'0 0.0
2017-Dec-01 18:56N 45°23' E 036°42'0 0.1
2017-Dec-01 18:28N 45°23' E 036°42'0 0.0
2017-Dec-01 17:58N 45°23' E 036°42'0 0.0
2017-Dec-01 17:28N 45°23' E 036°42'0 0.0
2017-Dec-01 16:59N 45°23' E 036°42'  

Dump ship's entire track history